sensor_id;sensor_type;location;lat;lon;timestamp;pressure;altitude;pressure_sealevel;temperature;humidity
10470;BME280;5282;47.052;15.458;2023-09-12T00:00:50;97332.75;;;17.82;100.00
10470;BME280;5282;47.052;15.458;2023-09-12T00:03:20;97333.19;;;17.79;100.00
10470;BME280;5282;47.052;15.458;2023-09-12T00:05:51;97343.44;;;17.77;100.00
10470;BME280;5282;47.052;15.458;2023-09-12T00:08:18;97338.25;;;17.68;100.00
10470;BME280;5282;47.052;15.458;2023-09-12T00:10:45;97329.72;;;17.65;100.00
10470;BME280;5282;47.052;15.458;2023-09-12T00:13:12;97333.94;;;17.54;100.00
10470;BME280;5282;47.052;15.458;2023-09-12T00:15:40;97331.22;;;17.54;100.00
10470;BME280;5282;47.052;15.458;2023-09-12T00:18:07;97328.72;;;17.52;100.00
10470;BME280;5282;47.052;15.458;2023-09-12T00:20:34;97331.22;;;17.54;100.00
10470;BME280;5282;47.052;15.458;2023-09-12T00:23:00;97328.09;;;17.50;100.00
10470;BME280;5282;47.052;15.458;2023-09-12T00:25:27;97317.41;;;17.49;100.00
10470;BME280;5282;47.052;15.458;2023-09-12T00:27:54;97322.47;;;17.45;100.00
10470;BME280;5282;47.052;15.458;2023-09-12T00:30:21;97315.34;;;17.44;100.00
10470;BME280;5282;47.052;15.458;2023-09-12T00:32:49;97321.25;;;17.41;100.00
10470;BME280;5282;47.052;15.458;2023-09-12T00:35:16;97302.78;;;17.43;100.00
10470;BME280;5282;47.052;15.458;2023-09-12T00:37:43;97307.81;;;17.46;100.00
10470;BME280;5282;47.052;15.458;2023-09-12T00:40:10;97306.34;;;17.43;100.00
10470;BME280;5282;47.052;15.458;2023-09-12T00:42:37;97303.41;;;17.45;100.00
10470;BME280;5282;47.052;15.458;2023-09-12T00:45:04;97302.38;;;17.39;100.00
10470;BME280;5282;47.052;15.458;2023-09-12T00:47:31;97305.59;;;17.30;100.00
10470;BME280;5282;47.052;15.458;2023-09-12T00:50:00;97304.13;;;17.27;100.00
10470;BME280;5282;47.052;15.458;2023-09-12T00:52:29;97301.63;;;17.25;100.00
10470;BME280;5282;47.052;15.458;2023-09-12T00:54:56;97299.34;;;17.22;100.00
10470;BME280;5282;47.052;15.458;2023-09-12T00:57:23;97302.91;;;17.23;100.00
10470;BME280;5282;47.052;15.458;2023-09-12T00:59:51;97307.50;;;17.22;100.00
10470;BME280;5282;47.052;15.458;2023-09-12T01:02:18;97306.28;;;17.18;100.00
10470;BME280;5282;47.052;15.458;2023-09-12T01:04:46;97307.97;;;17.13;100.00
10470;BME280;5282;47.052;15.458;2023-09-12T01:07:14;97309.44;;;17.08;100.00
10470;BME280;5282;47.052;15.458;2023-09-12T01:09:41;97305.69;;;17.03;100.00
10470;BME280;5282;47.052;15.458;2023-09-12T01:12:08;97299.63;;;17.01;100.00
10470;BME280;5282;47.052;15.458;2023-09-12T01:14:40;97304.66;;;17.04;100.00
10470;BME280;5282;47.052;15.458;2023-09-12T01:17:07;97308.00;;;16.99;100.00
10470;BME280;5282;47.052;15.458;2023-09-12T01:19:33;97303.84;;;16.96;100.00
10470;BME280;5282;47.052;15.458;2023-09-12T01:22:21;97306.31;;;16.91;100.00
10470;BME280;5282;47.052;15.458;2023-09-12T01:25:06;97300.50;;;16.88;100.00
10470;BME280;5282;47.052;15.458;2023-09-12T01:27:38;97306.56;;;16.90;100.00
10470;BME280;5282;47.052;15.458;2023-09-12T01:30:07;97306.31;;;16.91;100.00
10470;BME280;5282;47.052;15.458;2023-09-12T01:32:35;97306.75;;;16.81;100.00
10470;BME280;5282;47.052;15.458;2023-09-12T01:35:02;97306.75;;;16.81;100.00
10470;BME280;5282;47.052;15.458;2023-09-12T01:37:30;97315.97;;;16.80;100.00
10470;BME280;5282;47.052;15.458;2023-09-12T01:39:57;97304.91;;;16.75;100.00
10470;BME280;5282;47.052;15.458;2023-09-12T01:42:28;97309.50;;;16.75;100.00
10470;BME280;5282;47.052;15.458;2023-09-12T01:44:58;97305.31;;;16.72;100.00
10470;BME280;5282;47.052;15.458;2023-09-12T01:47:26;97314.34;;;16.66;100.00
10470;BME280;5282;47.052;15.458;2023-09-12T01:49:55;97308.91;;;16.66;100.00
10470;BME280;5282;47.052;15.458;2023-09-12T01:52:23;97306.78;;;16.68;100.00
10470;BME280;5282;47.052;15.458;2023-09-12T01:54:51;97312.44;;;16.66;100.00
10470;BME280;5282;47.052;15.458;2023-09-12T01:57:19;97318.31;;;16.63;100.00
10470;BME280;5282;47.052;15.458;2023-09-12T01:59:47;97327.50;;;16.69;100.00
10470;BME280;5282;47.052;15.458;2023-09-12T02:02:18;97323.31;;;16.60;100.00
10470;BME280;5282;47.052;15.458;2023-09-12T02:04:51;97329.00;;;16.52;100.00
10470;BME280;5282;47.052;15.458;2023-09-12T02:07:22;97318.53;;;16.48;100.00
10470;BME280;5282;47.052;15.458;2023-09-12T02:09:49;97321.47;;;16.47;100.00
10470;BME280;5282;47.052;15.458;2023-09-12T02:12:16;97324.38;;;16.45;100.00
10470;BME280;5282;47.052;15.458;2023-09-12T02:14:43;97323.56;;;16.45;100.00
10470;BME280;5282;47.052;15.458;2023-09-12T02:17:10;97321.88;;;16.44;100.00
10470;BME280;5282;47.052;15.458;2023-09-12T02:19:40;97320.44;;;16.48;100.00
10470;BME280;5282;47.052;15.458;2023-09-12T02:22:07;97321.66;;;16.45;100.00
10470;BME280;5282;47.052;15.458;2023-09-12T02:24:34;97315.00;;;16.41;100.00
10470;BME280;5282;47.052;15.458;2023-09-12T02:27:02;97319.59;;;16.41;100.00
10470;BME280;5282;47.052;15.458;2023-09-12T02:29:31;97318.97;;;16.39;100.00
10470;BME280;5282;47.052;15.458;2023-09-12T02:31:59;97323.97;;;16.35;100.00
10470;BME280;5282;47.052;15.458;2023-09-12T02:34:27;97328.59;;;16.34;100.00
10470;BME280;5282;47.052;15.458;2023-09-12T02:36:55;97327.53;;;16.35;100.00
10470;BME280;5282;47.052;15.458;2023-09-12T02:39:21;97329.63;;;16.33;100.00
10470;BME280;5282;47.052;15.458;2023-09-12T02:41:51;97329.00;;;16.31;100.00
10470;BME280;5282;47.052;15.458;2023-09-12T02:44:18;97322.09;;;16.29;100.00
10470;BME280;5282;47.052;15.458;2023-09-12T02:46:47;97325.03;;;16.27;100.00
10470;BME280;5282;47.052;15.458;2023-09-12T02:49:14;97323.16;;;16.21;100.00
10470;BME280;5282;47.052;15.458;2023-09-12T02:51:42;97325.44;;;16.17;100.00
10470;BME280;5282;47.052;15.458;2023-09-12T02:54:10;97317.31;;;16.17;100.00
10470;BME280;5282;47.052;15.458;2023-09-12T02:56:37;97328.78;;;16.13;100.00
10470;BME280;5282;47.052;15.458;2023-09-12T02:59:04;97321.06;;;16.10;100.00
10470;BME280;5282;47.052;15.458;2023-09-12T03:01:32;97319.38;;;16.09;100.00
10470;BME280;5282;47.052;15.458;2023-09-12T03:04:00;97317.50;;;16.02;100.00
10470;BME280;5282;47.052;15.458;2023-09-12T03:06:28;97316.47;;;16.03;100.00
10470;BME280;5282;47.052;15.458;2023-09-12T03:09:01;97314.34;;;16.06;100.00
10470;BME280;5282;47.052;15.458;2023-09-12T03:11:30;97310.19;;;16.10;100.00
10470;BME280;5282;47.052;15.458;2023-09-12T03:13:56;97316.88;;;16.14;100.00
10470;BME280;5282;47.052;15.458;2023-09-12T03:16:23;97313.94;;;16.09;100.00
10470;BME280;5282;47.052;15.458;2023-09-12T03:18:52;97318.56;;;16.08;100.00
10470;BME280;5282;47.052;15.458;2023-09-12T03:21:19;97313.13;;;16.08;100.00
10470;BME280;5282;47.052;15.458;2023-09-12T03:23:46;97314.34;;;16.06;100.00
10470;BME280;5282;47.052;15.458;2023-09-12T03:26:14;97314.59;;;16.04;100.00
10470;BME280;5282;47.052;15.458;2023-09-12T03:28:42;97308.50;;;16.02;100.00
10470;BME280;5282;47.052;15.458;2023-09-12T03:31:13;97312.72;;;16.04;100.00
10470;BME280;5282;47.052;15.458;2023-09-12T03:33:43;97309.56;;;16.01;100.00
10470;BME280;5282;47.052;15.458;2023-09-12T03:36:13;97311.84;;;15.97;100.00
10470;BME280;5282;47.052;15.458;2023-09-12T03:38:40;97309.56;;;15.94;100.00
10470;BME280;5282;47.052;15.458;2023-09-12T03:41:07;97309.34;;;15.89;100.00
10470;BME280;5282;47.052;15.458;2023-09-12T03:43:34;97302.25;;;15.88;100.00
10470;BME280;5282;47.052;15.458;2023-09-12T03:46:05;97304.13;;;15.87;100.00
10470;BME280;5282;47.052;15.458;2023-09-12T03:48:32;97309.13;;;15.91;100.00
10470;BME280;5282;47.052;15.458;2023-09-12T03:51:03;97306.00;;;15.87;100.00
10470;BME280;5282;47.052;15.458;2023-09-12T03:53:30;97308.09;;;15.85;100.00
10470;BME280;5282;47.052;15.458;2023-09-12T03:55:57;97304.69;;;15.83;100.00
10470;BME280;5282;47.052;15.458;2023-09-12T03:58:24;97306.22;;;15.85;100.00
10470;BME280;5282;47.052;15.458;2023-09-12T04:00:53;97308.09;;;15.92;100.00
10470;BME280;5282;47.052;15.458;2023-09-12T04:03:23;97309.78;;;15.93;100.00
10470;BME280;5282;47.052;15.458;2023-09-12T04:05:50;97313.75;;;15.90;100.00
10470;BME280;5282;47.052;15.458;2023-09-12T04:08:17;97308.09;;;15.85;100.00
10470;BME280;5282;47.052;15.458;2023-09-12T04:10:44;97317.66;;;15.81;100.00
10470;BME280;5282;47.052;15.458;2023-09-12T04:13:12;97315.53;;;15.76;100.00
10470;BME280;5282;47.052;15.458;2023-09-12T04:15:39;97312.44;;;15.79;100.00
10470;BME280;5282;47.052;15.458;2023-09-12T04:18:06;97326.19;;;15.71;100.00
10470;BME280;5282;47.052;15.458;2023-09-12T04:20:34;97322.44;;;15.72;100.00
10470;BME280;5282;47.052;15.458;2023-09-12T04:23:02;97328.06;;;15.70;100.00
10470;BME280;5282;47.052;15.458;2023-09-12T04:25:29;97325.97;;;15.66;100.00
10470;BME280;5282;47.052;15.458;2023-09-12T04:27:56;97327.66;;;15.67;100.00
10470;BME280;5282;47.052;15.458;2023-09-12T04:30:23;97323.47;;;15.64;100.00
10470;BME280;5282;47.052;15.458;2023-09-12T04:32:50;97335.38;;;15.70;100.00
10470;BME280;5282;47.052;15.458;2023-09-12T04:35:18;97340.81;;;15.70;100.00
10470;BME280;5282;47.052;15.458;2023-09-12T04:37:47;97333.50;;;15.70;100.00
10470;BME280;5282;47.052;15.458;2023-09-12T04:40:14;97328.50;;;15.67;100.00
10470;BME280;5282;47.052;15.458;2023-09-12T04:42:41;97328.91;;;15.64;100.00
10470;BME280;5282;47.052;15.458;2023-09-12T04:45:08;97338.31;;;15.68;100.00
10470;BME280;5282;47.052;15.458;2023-09-12T04:47:36;97331.41;;;15.66;100.00
10470;BME280;5282;47.052;15.458;2023-09-12T04:50:03;97338.06;;;15.63;100.00
10470;BME280;5282;47.052;15.458;2023-09-12T04:52:30;97337.03;;;15.64;100.00
10470;BME280;5282;47.052;15.458;2023-09-12T04:54:58;97340.59;;;15.71;100.00
10470;BME280;5282;47.052;15.458;2023-09-12T04:57:25;97339.78;;;15.71;100.00
10470;BME280;5282;47.052;15.458;2023-09-12T04:59:53;97335.38;;;15.70;100.00
10470;BME280;5282;47.052;15.458;2023-09-12T05:02:20;97346.88;;;15.72;100.00
10470;BME280;5282;47.052;15.458;2023-09-12T05:04:47;97344.78;;;15.74;100.00
10470;BME280;5282;47.052;15.458;2023-09-12T05:07:14;97348.13;;;15.83;100.00
10470;BME280;5282;47.052;15.458;2023-09-12T05:09:41;97337.31;;;15.89;100.00
10470;BME280;5282;47.052;15.458;2023-09-12T05:12:09;97340.25;;;15.88;100.00
10470;BME280;5282;47.052;15.458;2023-09-12T05:14:37;97339.84;;;15.91;100.00
10470;BME280;5282;47.052;15.458;2023-09-12T05:17:03;97333.78;;;15.96;100.00
10470;BME280;5282;47.052;15.458;2023-09-12T05:19:30;97344.25;;;15.99;100.00
10470;BME280;5282;47.052;15.458;2023-09-12T05:21:57;97344.84;;;16.01;100.00
10470;BME280;5282;47.052;15.458;2023-09-12T05:24:24;97349.47;;;16.07;100.00
10470;BME280;5282;47.052;15.458;2023-09-12T05:26:52;97349.06;;;16.10;100.00
10470;BME280;5282;47.052;15.458;2023-09-12T05:29:21;97348.00;;;16.18;100.00
10470;BME280;5282;47.052;15.458;2023-09-12T05:31:48;97354.06;;;16.33;100.00
10470;BME280;5282;47.052;15.458;2023-09-12T05:34:14;97350.31;;;16.41;100.00
10470;BME280;5282;47.052;15.458;2023-09-12T05:36:41;97358.25;;;16.36;100.00
10470;BME280;5282;47.052;15.458;2023-09-12T05:39:08;97356.78;;;16.33;100.00
10470;BME280;5282;47.052;15.458;2023-09-12T05:41:35;97353.03;;;16.34;100.00
10470;BME280;5282;47.052;15.458;2023-09-12T05:44:02;97354.25;;;16.59;100.00
10470;BME280;5282;47.052;15.458;2023-09-12T05:46:30;97354.03;;;16.74;100.00
10470;BME280;5282;47.052;15.458;2023-09-12T05:48:57;97356.75;;;16.74;100.00
10470;BME280;5282;47.052;15.458;2023-09-12T05:51:24;97357.38;;;16.76;100.00
10470;BME280;5282;47.052;15.458;2023-09-12T05:53:51;97360.94;;;16.76;100.00
10470;BME280;5282;47.052;15.458;2023-09-12T05:56:18;97364.25;;;16.92;100.00
10470;BME280;5282;47.052;15.458;2023-09-12T05:58:48;97362.38;;;16.92;100.00
10470;BME280;5282;47.052;15.458;2023-09-12T06:01:16;97355.72;;;16.95;100.00
10470;BME280;5282;47.052;15.458;2023-09-12T06:03:46;97357.56;;;17.08;100.00
10470;BME280;5282;47.052;15.458;2023-09-12T06:06:13;97352.94;;;17.15;100.00
10470;BME280;5282;47.052;15.458;2023-09-12T06:08:40;97359.22;;;17.09;100.00
10470;BME280;5282;47.052;15.458;2023-09-12T06:11:07;97354.63;;;17.09;100.00
10470;BME280;5282;47.052;15.458;2023-09-12T06:13:34;97349.31;;;17.35;100.00
10470;BME280;5282;47.052;15.458;2023-09-12T06:16:03;97354.28;;;17.45;100.00
10470;BME280;5282;47.052;15.458;2023-09-12T06:18:33;97347.78;;;17.52;100.00
10470;BME280;5282;47.052;15.458;2023-09-12T06:21:01;97348.56;;;17.60;100.00
10470;BME280;5282;47.052;15.458;2023-09-12T06:23:29;97350.25;;;17.61;100.00
10470;BME280;5282;47.052;15.458;2023-09-12T06:25:57;97342.50;;;17.57;100.00
10470;BME280;5282;47.052;15.458;2023-09-12T06:28:25;97345.78;;;17.73;100.00
10470;BME280;5282;47.052;15.458;2023-09-12T06:30:52;97349.59;;;17.65;100.00
10470;BME280;5282;47.052;15.458;2023-09-12T06:33:19;97345.75;;;17.80;100.00
10470;BME280;5282;47.052;15.458;2023-09-12T06:35:48;97348.84;;;17.83;100.00
10470;BME280;5282;47.052;15.458;2023-09-12T06:38:16;97347.75;;;17.98;100.00
10470;BME280;5282;47.052;15.458;2023-09-12T06:40:43;97343.47;;;18.09;100.00
10470;BME280;5282;47.052;15.458;2023-09-12T06:43:10;97343.00;;;18.18;100.00
10470;BME280;5282;47.052;15.458;2023-09-12T06:45:37;97342.09;;;18.25;100.00
10470;BME280;5282;47.052;15.458;2023-09-12T06:48:05;97350.78;;;18.40;100.00
10470;BME280;5282;47.052;15.458;2023-09-12T06:50:31;97355.34;;;18.46;100.00
10470;BME280;5282;47.052;15.458;2023-09-12T06:52:58;97350.28;;;18.50;100.00
10470;BME280;5282;47.052;15.458;2023-09-12T06:55:27;97349.88;;;18.46;100.00
10470;BME280;5282;47.052;15.458;2023-09-12T06:57:54;97342.22;;;18.62;100.00
10470;BME280;5282;47.052;15.458;2023-09-12T07:00:21;97340.91;;;18.64;100.00
10470;BME280;5282;47.052;15.458;2023-09-12T07:02:48;97344.75;;;18.82;100.00
10470;BME280;5282;47.052;15.458;2023-09-12T07:05:15;97347.63;;;18.87;100.00
10470;BME280;5282;47.052;15.458;2023-09-12T07:07:42;97345.03;;;18.99;100.00
10470;BME280;5282;47.052;15.458;2023-09-12T07:10:09;97349.72;;;19.10;100.00
10470;BME280;5282;47.052;15.458;2023-09-12T07:12:38;97358.22;;;19.21;100.00
10470;BME280;5282;47.052;15.458;2023-09-12T07:15:06;97365.25;;;19.29;100.00
10470;BME280;5282;47.052;15.458;2023-09-12T07:17:34;97354.19;;;19.23;100.00
10470;BME280;5282;47.052;15.458;2023-09-12T07:20:01;97357.97;;;19.41;100.00
10470;BME280;5282;47.052;15.458;2023-09-12T07:22:28;97356.28;;;19.58;100.00
10470;BME280;5282;47.052;15.458;2023-09-12T07:24:55;97354.81;;;19.74;100.00
10470;BME280;5282;47.052;15.458;2023-09-12T07:27:21;97356.84;;;19.79;100.00
10470;BME280;5282;47.052;15.458;2023-09-12T07:29:50;97356.38;;;19.82;100.00
10470;BME280;5282;47.052;15.458;2023-09-12T07:32:16;97363.22;;;19.92;100.00
10470;BME280;5282;47.052;15.458;2023-09-12T07:34:44;97365.06;;;20.10;100.00
10470;BME280;5282;47.052;15.458;2023-09-12T07:37:14;97366.88;;;20.16;100.00
10470;BME280;5282;47.052;15.458;2023-09-12T07:39:41;97360.16;;;20.30;100.00
10470;BME280;5282;47.052;15.458;2023-09-12T07:42:08;97360.16;;;20.30;100.00
10470;BME280;5282;47.052;15.458;2023-09-12T07:44:35;97359.44;;;20.35;100.00
10470;BME280;5282;47.052;15.458;2023-09-12T07:47:03;97364.09;;;20.46;100.00
10470;BME280;5282;47.052;15.458;2023-09-12T07:49:30;97362.88;;;20.54;100.00
10470;BME280;5282;47.052;15.458;2023-09-12T07:51:58;97365.28;;;20.62;100.00
10470;BME280;5282;47.052;15.458;2023-09-12T07:54:24;97365.81;;;20.83;100.00
10470;BME280;5282;47.052;15.458;2023-09-12T07:56:54;97369.97;;;20.98;100.00
10470;BME280;5282;47.052;15.458;2023-09-12T07:59:20;97363.28;;;21.05;100.00
10470;BME280;5282;47.052;15.458;2023-09-12T08:01:50;97373.19;;;20.94;100.00
10470;BME280;5282;47.052;15.458;2023-09-12T08:04:18;97375.06;;;21.06;100.00
10470;BME280;5282;47.052;15.458;2023-09-12T08:06:45;97376.13;;;21.29;100.00
10470;BME280;5282;47.052;15.458;2023-09-12T08:09:12;97380.75;;;21.40;100.00
10470;BME280;5282;47.052;15.458;2023-09-12T08:11:39;97379.06;;;21.39;100.00
10470;BME280;5282;47.052;15.458;2023-09-12T08:14:06;97377.47;;;21.55;100.00
10470;BME280;5282;47.052;15.458;2023-09-12T08:16:32;97379.72;;;21.70;100.00
10470;BME280;5282;47.052;15.458;2023-09-12T08:18:59;97380.56;;;21.70;100.00
10470;BME280;5282;47.052;15.458;2023-09-12T08:21:27;97385.31;;;22.04;100.00
10470;BME280;5282;47.052;15.458;2023-09-12T08:23:55;97386.19;;;22.22;100.00
10470;BME280;5282;47.052;15.458;2023-09-12T08:26:22;97388.34;;;22.19;100.00
10470;BME280;5282;47.052;15.458;2023-09-12T08:28:49;97387.19;;;22.32;100.00
10470;BME280;5282;47.052;15.458;2023-09-12T08:31:16;97386.59;;;22.42;100.00
10470;BME280;5282;47.052;15.458;2023-09-12T08:33:42;97389.28;;;22.71;100.00
10470;BME280;5282;47.052;15.458;2023-09-12T08:36:09;97379.59;;;22.86;100.00
10470;BME280;5282;47.052;15.458;2023-09-12T08:38:37;97386.75;;;22.70;100.00
10470;BME280;5282;47.052;15.458;2023-09-12T08:41:05;97377.94;;;22.68;100.00
10470;BME280;5282;47.052;15.458;2023-09-12T08:43:32;97382.03;;;22.82;100.00
10470;BME280;5282;47.052;15.458;2023-09-12T08:46:02;97380.88;;;23.17;100.00
10470;BME280;5282;47.052;15.458;2023-09-12T08:48:30;97377.03;;;23.35;100.00
10470;BME280;5282;47.052;15.458;2023-09-12T08:50:57;97365.34;;;23.23;100.00
10470;BME280;5282;47.052;15.458;2023-09-12T08:53:25;97379.47;;;23.54;100.00
10470;BME280;5282;47.052;15.458;2023-09-12T08:55:54;97372.25;;;23.48;100.00
10470;BME280;5282;47.052;15.458;2023-09-12T08:58:22;97375.56;;;23.27;100.00
10470;BME280;5282;47.052;15.458;2023-09-12T09:00:52;97376.03;;;23.64;100.00
10470;BME280;5282;47.052;15.458;2023-09-12T09:03:20;97378.97;;;23.79;100.00
10470;BME280;5282;47.052;15.458;2023-09-12T09:05:49;97381.00;;;23.89;100.00
10470;BME280;5282;47.052;15.458;2023-09-12T09:08:18;97370.47;;;24.03;100.00
10470;BME280;5282;47.052;15.458;2023-09-12T09:10:56;97366.53;;;24.21;100.00
10470;BME280;5282;47.052;15.458;2023-09-12T09:13:23;97363.91;;;24.09;100.00
10470;BME280;5282;47.052;15.458;2023-09-12T09:16:09;97363.91;;;24.37;100.00
10470;BME280;5282;47.052;15.458;2023-09-12T09:18:49;97359.78;;;24.67;100.00
10470;BME280;5282;47.052;15.458;2023-09-12T09:21:17;97364.28;;;24.78;100.00
10470;BME280;5282;47.052;15.458;2023-09-12T09:23:45;97361.59;;;24.88;100.00
10470;BME280;5282;47.052;15.458;2023-09-12T09:26:14;97367.25;;;25.14;100.00
10470;BME280;5282;47.052;15.458;2023-09-12T09:28:40;97367.06;;;25.31;100.00
10470;BME280;5282;47.052;15.458;2023-09-12T09:31:10;97362.97;;;25.39;100.00
10470;BME280;5282;47.052;15.458;2023-09-12T09:33:39;97369.69;;;25.53;100.00
10470;BME280;5282;47.052;15.458;2023-09-12T09:36:07;97366.19;;;25.68;100.00
10470;BME280;5282;47.052;15.458;2023-09-12T09:38:36;97366.50;;;25.87;100.00
10470;BME280;5282;47.052;15.458;2023-09-12T09:41:04;97365.97;;;25.85;100.00
10470;BME280;5282;47.052;15.458;2023-09-12T09:43:33;97362.97;;;26.02;100.00
10470;BME280;5282;47.052;15.458;2023-09-12T09:46:00;97369.38;;;26.18;100.00
10470;BME280;5282;47.052;15.458;2023-09-12T09:48:28;97371.63;;;26.37;100.00
10470;BME280;5282;47.052;15.458;2023-09-12T09:51:00;97365.53;;;26.66;100.00
10470;BME280;5282;47.052;15.458;2023-09-12T09:53:28;97372.50;;;26.79;100.00
10470;BME280;5282;47.052;15.458;2023-09-12T09:56:08;97370.25;;;26.97;100.00
10470;BME280;5282;47.052;15.458;2023-09-12T09:58:42;97366.13;;;26.94;100.00
10470;BME280;5282;47.052;15.458;2023-09-12T10:01:14;97363.31;;;27.15;100.00
10470;BME280;5282;47.052;15.458;2023-09-12T10:03:44;97369.44;;;26.81;100.00
10470;BME280;5282;47.052;15.458;2023-09-12T10:06:13;97362.22;;;27.00;100.00
10470;BME280;5282;47.052;15.458;2023-09-12T10:08:43;97357.19;;;27.33;100.00
10470;BME280;5282;47.052;15.458;2023-09-12T10:11:10;97351.59;;;27.59;100.00
10470;BME280;5282;47.052;15.458;2023-09-12T10:13:40;97353.75;;;27.67;100.00
10470;BME280;5282;47.052;15.458;2023-09-12T10:16:12;97345.50;;;27.57;100.00
10470;BME280;5282;47.052;15.458;2023-09-12T10:18:44;97341.28;;;27.80;100.00
10470;BME280;5282;47.052;15.458;2023-09-12T10:21:16;97340.06;;;27.97;99.64
10470;BME280;5282;47.052;15.458;2023-09-12T10:23:47;97332.38;;;27.89;99.23
10470;BME280;5282;47.052;15.458;2023-09-12T10:26:16;97328.97;;;28.02;100.00
10470;BME280;5282;47.052;15.458;2023-09-12T10:28:45;97332.34;;;27.94;100.00
10470;BME280;5282;47.052;15.458;2023-09-12T10:31:14;97337.16;;;28.23;100.00
10470;BME280;5282;47.052;15.458;2023-09-12T10:33:42;97331.78;;;28.37;100.00
10470;BME280;5282;47.052;15.458;2023-09-12T10:36:11;97329.22;;;28.51;95.72
10470;BME280;5282;47.052;15.458;2023-09-12T10:38:41;97328.22;;;28.36;100.00
10470;BME280;5282;47.052;15.458;2023-09-12T10:41:11;97330.03;;;28.11;100.00
10470;BME280;5282;47.052;15.458;2023-09-12T10:43:40;97335.00;;;27.59;100.00
10470;BME280;5282;47.052;15.458;2023-09-12T10:46:08;97334.69;;;27.71;100.00
10470;BME280;5282;47.052;15.458;2023-09-12T10:48:36;97332.72;;;28.27;100.00
10470;BME280;5282;47.052;15.458;2023-09-12T10:51:06;97329.41;;;28.59;100.00
10470;BME280;5282;47.052;15.458;2023-09-12T10:53:34;97326.63;;;28.59;99.78
10470;BME280;5282;47.052;15.458;2023-09-12T10:56:15;97323.28;;;28.62;100.00
10470;BME280;5282;47.052;15.458;2023-09-12T10:59:11;97327.28;;;29.10;100.00
10470;BME280;5282;47.052;15.458;2023-09-12T11:01:41;97317.97;;;29.01;98.04
10470;BME280;5282;47.052;15.458;2023-09-12T11:04:38;97320.41;;;29.07;99.71
10470;BME280;5282;47.052;15.458;2023-09-12T11:07:44;97327.75;;;29.17;97.68
10470;BME280;5282;47.052;15.458;2023-09-12T11:10:16;97318.25;;;28.99;93.32
10470;BME280;5282;47.052;15.458;2023-09-12T11:12:45;97323.41;;;29.11;94.08
10470;BME280;5282;47.052;15.458;2023-09-12T11:15:13;97316.66;;;29.17;92.97
10470;BME280;5282;47.052;15.458;2023-09-12T11:17:42;97322.22;;;29.17;100.00
10470;BME280;5282;47.052;15.458;2023-09-12T11:20:10;97321.75;;;29.10;99.28
10470;BME280;5282;47.052;15.458;2023-09-12T11:22:39;97317.63;;;29.32;96.95
10470;BME280;5282;47.052;15.458;2023-09-12T11:25:16;97319.84;;;29.30;100.00
10470;BME280;5282;47.052;15.458;2023-09-12T11:28:03;97318.19;;;29.29;97.74
10470;BME280;5282;47.052;15.458;2023-09-12T11:30:31;97306.28;;;28.45;100.00
10470;BME280;5282;47.052;15.458;2023-09-12T11:32:59;97312.88;;;28.49;100.00
10470;BME280;5282;47.052;15.458;2023-09-12T11:35:29;97305.16;;;28.81;100.00
10470;BME280;5282;47.052;15.458;2023-09-12T11:37:58;97303.44;;;28.85;100.00
10470;BME280;5282;47.052;15.458;2023-09-12T11:40:27;97304.78;;;29.17;100.00
10470;BME280;5282;47.052;15.458;2023-09-12T11:43:08;97302.50;;;28.94;97.72
10470;BME280;5282;47.052;15.458;2023-09-12T11:45:35;97301.47;;;28.90;100.00
10470;BME280;5282;47.052;15.458;2023-09-12T11:48:10;97298.66;;;29.44;97.98
10470;BME280;5282;47.052;15.458;2023-09-12T11:50:37;97298.28;;;29.27;93.69
10470;BME280;5282;47.052;15.458;2023-09-12T11:53:08;97300.31;;;29.45;100.00
10470;BME280;5282;47.052;15.458;2023-09-12T11:55:42;97296.06;;;29.53;91.45
10470;BME280;5282;47.052;15.458;2023-09-12T11:58:10;97286.03;;;29.08;93.22
10470;BME280;5282;47.052;15.458;2023-09-12T12:00:37;97295.97;;;29.39;99.77
10470;BME280;5282;47.052;15.458;2023-09-12T12:03:06;97287.63;;;29.39;100.00
10470;BME280;5282;47.052;15.458;2023-09-12T12:05:35;97289.22;;;29.45;98.81
10470;BME280;5282;47.052;15.458;2023-09-12T12:08:02;97292.75;;;29.51;92.71
10470;BME280;5282;47.052;15.458;2023-09-12T12:10:29;97285.19;;;29.57;91.83
10470;BME280;5282;47.052;15.458;2023-09-12T12:12:58;97285.53;;;29.50;90.35
10470;BME280;5282;47.052;15.458;2023-09-12T12:15:27;97283.81;;;29.35;91.54
10470;BME280;5282;47.052;15.458;2023-09-12T12:17:54;97291.09;;;29.50;95.02
10470;BME280;5282;47.052;15.458;2023-09-12T12:20:21;97284.19;;;29.47;88.83
10470;BME280;5282;47.052;15.458;2023-09-12T12:22:50;97285.53;;;29.50;84.68
10470;BME280;5282;47.052;15.458;2023-09-12T12:25:17;97284.72;;;29.25;79.46
10470;BME280;5282;47.052;15.458;2023-09-12T12:27:44;97283.53;;;29.31;83.69
10470;BME280;5282;47.052;15.458;2023-09-12T12:30:13;97281.53;;;29.13;87.43
10470;BME280;5282;47.052;15.458;2023-09-12T12:32:40;97271.63;;;29.31;86.84
10470;BME280;5282;47.052;15.458;2023-09-12T12:35:07;97269.09;;;29.34;86.72
10470;BME280;5282;47.052;15.458;2023-09-12T12:37:36;97272.44;;;29.55;93.76
10470;BME280;5282;47.052;15.458;2023-09-12T12:40:06;97275.81;;;29.91;89.24
10470;BME280;5282;47.052;15.458;2023-09-12T12:42:40;97271.94;;;29.92;96.12
10470;BME280;5282;47.052;15.458;2023-09-12T12:45:11;97273.44;;;29.84;87.18
10470;BME280;5282;47.052;15.458;2023-09-12T12:47:38;97268.78;;;29.79;78.23
10470;BME280;5282;47.052;15.458;2023-09-12T12:50:07;97266.31;;;29.59;79.14
10470;BME280;5282;47.052;15.458;2023-09-12T12:52:35;97268.78;;;29.79;81.17
10470;BME280;5282;47.052;15.458;2023-09-12T12:55:06;97271.38;;;29.51;76.46
10470;BME280;5282;47.052;15.458;2023-09-12T12:57:36;97262.78;;;29.72;80.76